Time;durP1;ratioP1;P1;durP2;ratioP2;P2;SDS_P1;SDS_P2;PMS_P1;PMS_P2;Temp;Humidity;BMP_temperature;BMP_pressure;BME280_temperature;BME280_humidity;BME280_pressure;Samples;Min_cycle;Max_cycle;Signal;HPM_P1;HPM_P2
2022/07/30 00:01:14;;;;;;;16.27;7.70;;;;;;;19.40;100.00;101262.22;5047748;28;20140;-73
2022/07/30 00:03:40;;;;;;;15.95;7.05;;;;;;;19.37;100.00;101260.31;5044806;28;20053;-74
2022/07/30 00:06:07;;;;;;;16.42;7.43;;;;;;;19.34;100.00;101252.00;5031158;28;20604;-76
2022/07/30 00:08:33;;;;;;;13.80;7.13;;;;;;;19.29;100.00;101249.72;5040567;28;20049;-72
2022/07/30 00:11:00;;;;;;;16.15;7.47;;;;;;;19.18;100.00;101244.41;5037545;28;20159;-74
2022/07/30 00:13:27;;;;;;;13.45;7.22;;;;;;;19.14;100.00;101252.09;5038120;28;20063;-74
2022/07/30 00:15:53;;;;;;;14.15;6.95;;;;;;;18.96;100.00;101246.19;5037445;28;20076;-73
2022/07/30 00:18:20;;;;;;;14.57;7.63;;;;;;;18.92;100.00;101251.13;5044848;28;20147;-75
2022/07/30 00:20:48;;;;;;;14.20;7.47;;;;;;;18.89;100.00;101246.41;5035173;28;20059;-75
2022/07/30 00:23:14;;;;;;;15.18;7.53;;;;;;;18.81;100.00;101244.22;5041327;28;20044;-74
2022/07/30 00:25:41;;;;;;;15.98;7.30;;;;;;;18.82;100.00;101245.78;5037115;28;20048;-76
2022/07/30 00:28:07;;;;;;;17.90;6.90;;;;;;;18.79;100.00;101241.84;5046837;28;20159;-73
2022/07/30 00:30:34;;;;;;;13.45;6.97;;;;;;;18.70;100.00;101252.91;5038426;28;20160;-76
2022/07/30 00:33:01;;;;;;;21.48;9.55;;;;;;;18.66;100.00;101245.84;5039632;28;20048;-73
2022/07/30 00:35:27;;;;;;;15.60;7.05;;;;;;;18.66;100.00;101248.63;5040551;28;20107;-73
2022/07/30 00:37:54;;;;;;;18.45;7.97;;;;;;;18.68;100.00;101249.75;5035097;28;20592;-74
2022/07/30 00:40:21;;;;;;;13.57;7.22;;;;;;;18.68;100.00;101246.97;5031267;28;20147;-75
2022/07/30 00:42:48;;;;;;;16.67;7.97;;;;;;;18.71;100.00;101256.50;5039075;28;20055;-78
2022/07/30 00:45:16;;;;;;;15.15;7.20;;;;;;;18.69;100.00;101256.16;5035122;28;20055;-74
2022/07/30 00:47:43;;;;;;;16.08;7.07;;;;;;;18.64;100.00;101249.06;5029226;28;20525;-74
2022/07/30 00:50:12;;;;;;;14.68;6.55;;;;;;;18.62;100.00;101248.72;5036975;28;20054;-73
2022/07/30 00:52:39;;;;;;;14.75;7.60;;;;;;;18.55;100.00;101248.91;5039015;28;20731;-74
2022/07/30 00:55:09;;;;;;;15.77;7.20;;;;;;;18.55;100.00;101239.69;5038185;28;20049;-74
2022/07/30 00:57:36;;;;;;;17.23;7.53;;;;;;;18.51;100.00;101250.19;5042767;28;20062;-75
2022/07/30 01:00:10;;;;;;;16.67;7.75;;;;;;;18.47;100.00;101249.50;5034250;28;20055;-75
2022/07/30 01:02:36;;;;;;;14.00;7.25;;;;;;;18.42;100.00;101239.63;5044074;28;20041;-77
2022/07/30 01:05:04;;;;;;;15.82;6.95;;;;;;;18.39;100.00;101240.47;5035476;28;20905;-75
2022/07/30 01:07:30;;;;;;;15.48;7.68;;;;;;;18.38;100.00;101243.72;5041832;28;20055;-76
2022/07/30 01:09:57;;;;;;;14.70;6.95;;;;;;;18.38;100.00;101252.94;5033391;28;20051;-76
2022/07/30 01:12:25;;;;;;;14.15;7.35;;;;;;;18.31;100.00;101244.66;5044463;28;20084;-76
2022/07/30 01:14:55;;;;;;;17.25;8.32;;;;;;;18.28;100.00;101237.13;5033301;28;20045;-76
2022/07/30 01:17:22;;;;;;;15.25;7.93;;;;;;;18.25;100.00;101235.19;5044660;28;20044;-75
2022/07/30 01:19:51;;;;;;;15.52;7.88;;;;;;;18.26;100.00;101236.00;5042314;28;20063;-76
2022/07/30 01:22:29;;;;;;;17.00;7.72;;;;;;;18.18;100.00;101235.38;5035862;28;20049;-75
2022/07/30 01:25:02;;;;;;;18.02;8.68;;;;;;;18.17;100.00;101235.81;5043616;28;20084;-75
2022/07/30 01:27:31;;;;;;;16.13;7.65;;;;;;;18.13;100.00;101235.91;5045135;28;20826;-75
2022/07/30 01:30:04;;;;;;;15.32;7.40;;;;;;;17.96;100.00;101234.31;5054772;28;20127;-74
2022/07/30 01:32:33;;;;;;;17.38;7.82;;;;;;;17.91;100.00;101232.03;5048261;28;20051;-73
2022/07/30 01:35:01;;;;;;;15.90;7.38;;;;;;;17.91;100.00;101221.63;5051947;28;20048;-72
2022/07/30 01:37:30;;;;;;;13.63;7.55;;;;;;;17.91;100.00;101221.63;5060312;28;20444;-73
2022/07/30 01:39:57;;;;;;;14.85;7.47;;;;;;;17.83;100.00;101225.00;5056314;28;20049;-74
2022/07/30 01:42:27;;;;;;;16.83;7.97;;;;;;;17.70;100.00;101222.09;5054670;28;20056;-73
2022/07/30 01:44:56;;;;;;;19.00;8.30;;;;;;;17.58;100.00;101233.16;5055852;28;21605;-70
2022/07/30 01:47:24;;;;;;;20.02;8.85;;;;;;;17.49;100.00;101230.16;5061062;28;20059;-73
2022/07/30 01:49:53;;;;;;;18.50;9.07;;;;;;;17.50;100.00;101228.94;5052019;28;20124;-73
2022/07/30 01:52:22;;;;;;;16.90;8.52;;;;;;;17.52;100.00;101238.47;5061959;28;20132;-74
2022/07/30 01:54:51;;;;;;;14.77;7.85;;;;;;;17.57;100.00;101231.59;5056856;28;20058;-71
2022/07/30 01:57:20;;;;;;;15.35;7.43;;;;;;;17.56;100.00;101230.00;5064680;28;20509;-74
2022/07/30 01:59:50;;;;;;;16.50;8.05;;;;;;;17.56;100.00;101232.81;5054040;28;20094;-73
2022/07/30 02:02:17;;;;;;;17.30;9.00;;;;;;;17.60;100.00;101234.31;5055091;28;20140;-73
2022/07/30 02:04:44;;;;;;;17.92;8.15;;;;;;;17.55;100.00;101228.44;5059398;28;20485;-73
2022/07/30 02:07:18;;;;;;;16.58;7.82;;;;;;;17.52;100.00;101243.28;5048777;28;20067;-73
2022/07/30 02:09:57;;;;;;;18.98;8.10;;;;;;;17.48;100.00;101239.75;5056459;28;20112;-73
2022/07/30 02:12:28;;;;;;;16.80;8.07;;;;;;;17.48;100.00;101243.34;5048292;28;20232;-73
2022/07/30 02:15:10;;;;;;;16.92;8.57;;;;;;;17.44;100.00;101250.25;5057703;28;20074;-73
2022/07/30 02:17:49;;;;;;;15.82;8.25;;;;;;;17.36;100.00;101246.78;5053385;28;20191;-74
2022/07/30 02:20:17;;;;;;;17.77;8.25;;;;;;;17.27;100.00;101256.97;5055695;28;20135;-73
2022/07/30 02:22:45;;;;;;;20.77;8.48;;;;;;;17.14;100.00;101256.00;5065829;28;20140;-71
2022/07/30 02:25:19;;;;;;;15.57;8.25;;;;;;;17.03;100.00;101263.81;5056859;28;20484;-73
2022/07/30 02:27:51;;;;;;;18.63;9.18;;;;;;;17.00;100.00;101262.69;5060290;28;20135;-73
2022/07/30 02:30:18;;;;;;;19.15;9.13;;;;;;;17.01;100.00;101252.28;5054395;28;20037;-73
2022/07/30 02:32:47;;;;;;;16.42;9.07;;;;;;;16.96;100.00;101252.78;5047312;28;20574;-73
2022/07/30 02:35:17;;;;;;;18.52;9.45;;;;;;;16.94;100.00;101263.59;5056420;28;20167;-73
2022/07/30 02:37:47;;;;;;;18.88;9.35;;;;;;;16.84;100.00;101264.59;5051053;28;20053;-74
2022/07/30 02:40:16;;;;;;;17.80;9.43;;;;;;;16.82;100.00;101267.00;5068216;28;20136;-73
2022/07/30 02:42:48;;;;;;;17.73;9.77;;;;;;;16.74;100.00;101271.94;5063909;28;20137;-73
2022/07/30 02:45:18;;;;;;;17.02;9.52;;;;;;;16.64;100.00;101280.50;5054342;28;20510;-73
2022/07/30 02:47:48;;;;;;;22.25;10.40;;;;;;;16.59;100.00;101273.41;5064091;28;20120;-71
2022/07/30 02:50:17;;;;;;;20.15;10.40;;;;;;;16.68;100.00;101268.06;5068266;28;20477;-73
2022/07/30 02:52:45;;;;;;;20.00;11.38;;;;;;;16.77;100.00;101270.31;5056443;28;20053;-72
2022/07/30 02:55:13;;;;;;;20.38;9.85;;;;;;;16.84;100.00;101264.59;5058001;28;20061;-72
2022/07/30 02:57:41;;;;;;;18.08;9.18;;;;;;;16.86;100.00;101262.13;5058077;28;20106;-74
2022/07/30 03:00:10;;;;;;;16.92;10.00;;;;;;;16.87;100.00;101258.91;5065697;28;20078;-73
2022/07/30 03:02:38;;;;;;;17.33;9.20;;;;;;;16.85;100.00;101254.97;5060547;28;20057;-73
2022/07/30 03:05:07;;;;;;;17.65;9.48;;;;;;;16.86;100.00;101262.94;5054870;28;20049;-69
2022/07/30 03:07:36;;;;;;;17.40;9.70;;;;;;;16.90;100.00;101268.44;5058419;28;20099;-73
2022/07/30 03:10:04;;;;;;;16.58;9.13;;;;;;;16.91;100.00;101261.66;5056614;28;20863;-73
2022/07/30 03:12:33;;;;;;;16.30;9.95;;;;;;;16.89;100.00;101261.28;5058723;28;20136;-72
2022/07/30 03:14:59;;;;;;;17.95;10.20;;;;;;;16.86;100.00;101262.13;5066180;28;20544;-73
2022/07/30 03:17:31;;;;;;;20.10;9.35;;;;;;;16.87;100.00;101269.34;5066526;28;20140;-73
2022/07/30 03:19:59;;;;;;;18.30;10.38;;;;;;;16.87;100.00;101269.34;5058125;28;20076;-71
2022/07/30 03:22:27;;;;;;;18.25;9.95;;;;;;;16.80;100.00;101270.22;5065994;28;20160;-74
2022/07/30 03:24:58;;;;;;;18.05;8.93;;;;;;;16.74;100.00;101282.34;5063668;28;20099;-73
2022/07/30 03:27:25;;;;;;;16.85;8.70;;;;;;;16.60;100.00;101274.19;5059603;28;20052;-73
2022/07/30 03:29:54;;;;;;;17.25;9.48;;;;;;;16.52;100.00;101281.91;5055799;28;20160;-74
2022/07/30 03:32:21;;;;;;;20.48;9.65;;;;;;;16.38;100.00;101281.31;5059340;28;20059;-73
2022/07/30 03:34:53;;;;;;;19.40;9.68;;;;;;;16.29;100.00;101276.25;5059117;28;20045;-74
2022/07/30 03:37:21;;;;;;;19.92;10.18;;;;;;;16.37;100.00;101279.72;5053145;28;20566;-73
2022/07/30 03:39:48;;;;;;;18.83;9.52;;;;;;;16.40;100.00;101274.06;5057321;28;20561;-74
2022/07/30 03:42:15;;;;;;;18.77;10.45;;;;;;;16.42;100.00;101280.06;5050091;28;20049;-72
2022/07/30 03:44:44;;;;;;;18.05;9.13;;;;;;;16.34;100.00;101288.94;5050559;28;20053;-74
2022/07/30 03:47:12;;;;;;;21.65;9.50;;;;;;;16.31;100.00;101278.63;5057269;28;20049;-74
2022/07/30 03:49:39;;;;;;;18.17;10.35;;;;;;;16.24;100.00;101287.13;5059620;28;20083;-73
2022/07/30 03:52:07;;;;;;;23.17;10.70;;;;;;;16.19;100.00;101298.75;5062249;28;20049;-72
2022/07/30 03:54:34;;;;;;;18.95;10.63;;;;;;;16.15;100.00;101293.22;5051935;28;20084;-74
2022/07/30 03:57:03;;;;;;;18.17;10.27;;;;;;;16.13;100.00;101294.88;5065935;28;20879;-73
2022/07/30 03:59:30;;;;;;;20.55;12.00;;;;;;;16.14;100.00;101302.00;5065645;28;20041;-74
2022/07/30 04:02:04;;;;;;;21.38;11.60;;;;;;;16.08;100.00;101298.91;5056991;28;20044;-73
2022/07/30 04:04:32;;;;;;;21.83;11.98;;;;;;;16.12;100.00;101302.44;5049220;28;20135;-74
2022/07/30 04:06:59;;;;;;;21.02;11.07;;;;;;;16.15;100.00;101301.59;5056454;28;20091;-74
2022/07/30 04:09:26;;;;;;;18.85;10.80;;;;;;;16.11;100.00;101303.66;5058259;28;20162;-75
2022/07/30 04:11:53;;;;;;;23.58;11.90;;;;;;;16.11;100.00;101306.44;5056556;28;20079;-74
2022/07/30 04:14:19;;;;;;;19.90;12.02;;;;;;;16.22;100.00;101300.69;5064967;28;20056;-73
2022/07/30 04:16:53;;;;;;;22.05;12.18;;;;;;;16.27;100.00;101303.03;5065394;28;20051;-71
2022/07/30 04:19:27;;;;;;;19.88;12.05;;;;;;;16.37;100.00;101297.25;5052574;28;20491;-73
2022/07/30 04:21:55;;;;;;;21.05;12.27;;;;;;;16.47;100.00;101307.50;5056742;28;20131;-72
2022/07/30 04:24:24;;;;;;;20.65;11.80;;;;;;;16.48;100.00;101306.31;5067970;28;20072;-73
2022/07/30 04:26:51;;;;;;;21.00;11.15;;;;;;;16.39;100.00;101308.00;5057225;28;20572;-75
2022/07/30 04:29:18;;;;;;;19.02;11.88;;;;;;;16.36;100.00;101318.03;5065709;28;20581;-73
2022/07/30 04:31:52;;;;;;;19.77;11.10;;;;;;;16.24;100.00;101320.63;5057850;28;20052;-73
2022/07/30 04:34:19;;;;;;;17.92;9.98;;;;;;;16.13;100.00;101317.19;5060543;28;20538;-72
2022/07/30 04:36:45;;;;;;;21.17;11.05;;;;;;;16.02;100.00;101331.28;5060236;28;20429;-75
2022/07/30 04:39:12;;;;;;;21.17;11.95;;;;;;;16.00;100.00;101330.91;5057656;28;20064;-72
2022/07/30 04:41:39;;;;;;;22.85;12.43;;;;;;;16.03;100.00;101329.31;5050209;28;20140;-72
2022/07/30 04:44:18;;;;;;;21.02;12.88;;;;;;;16.03;100.00;101320.94;5066663;28;20592;-72
2022/07/30 04:46:46;;;;;;;22.25;12.82;;;;;;;16.14;100.00;101324.34;5062302;28;20144;-70
2022/07/30 04:49:15;;;;;;;23.08;12.75;;;;;;;16.12;100.00;101329.56;5055067;28;20071;-73
2022/07/30 04:51:43;;;;;;;20.20;11.95;;;;;;;16.16;100.00;101335.91;5064232;28;20056;-73
2022/07/30 04:54:13;;;;;;;19.65;12.02;;;;;;;16.18;100.00;101339.03;5051430;28;20494;-72
2022/07/30 04:56:44;;;;;;;22.60;13.55;;;;;;;16.25;100.00;101347.31;5060355;28;20056;-73
2022/07/30 04:59:22;;;;;;;26.87;15.50;;;;;;;16.31;100.00;101348.44;5066914;28;20113;-73
2022/07/30 05:01:50;;;;;;;25.75;15.15;;;;;;;16.29;100.00;101350.84;5057952;28;20087;-70
2022/07/30 05:04:17;;;;;;;24.90;13.88;;;;;;;16.35;100.00;101349.97;5066509;28;20106;-73
2022/07/30 05:06:45;;;;;;;25.05;13.50;;;;;;;16.38;100.00;101343.53;5051528;28;20506;-73
2022/07/30 05:09:14;;;;;;;21.55;13.10;;;;;;;16.42;100.00;101349.91;5066774;28;20552;-73
2022/07/30 05:11:41;;;;;;;24.70;13.32;;;;;;;16.43;100.00;101361.88;5062448;28;20433;-73
2022/07/30 05:14:08;;;;;;;27.58;14.27;;;;;;;16.41;100.00;101358.66;5056007;28;20045;-74
2022/07/30 05:16:34;;;;;;;20.35;13.10;;;;;;;16.43;100.00;101364.66;5057236;28;20466;-74
2022/07/30 05:19:01;;;;;;;25.80;14.50;;;;;;;16.49;100.00;101354.56;5055899;28;20135;-73
2022/07/30 05:21:33;;;;;;;26.58;14.55;;;;;;;16.51;100.00;101363.34;5061975;28;20044;-73
2022/07/30 05:24:00;;;;;;;25.02;13.55;;;;;;;16.50;100.00;101364.56;5066942;28;20131;-73
2022/07/30 05:26:27;;;;;;;26.65;14.68;;;;;;;16.58;100.00;101374.41;5058335;28;20052;-73
2022/07/30 05:28:53;;;;;;;27.25;15.73;;;;;;;16.66;100.00;101378.66;5058116;28;20044;-73
2022/07/30 05:31:23;;;;;;;32.53;15.98;;;;;;;16.76;100.00;101366.53;5058764;28;20055;-72
2022/07/30 05:33:50;;;;;;;26.40;15.90;;;;;;;16.87;100.00;101375.53;5059231;28;20053;-73
2022/07/30 05:36:18;;;;;;;33.95;18.13;;;;;;;17.00;100.00;101382.09;5061032;28;20171;-74
2022/07/30 05:38:45;;;;;;;37.88;20.92;;;;;;;17.09;100.00;101385.94;5051845;28;20049;-75
2022/07/30 05:41:12;;;;;;;43.55;20.92;;;;;;;17.22;100.00;101395.28;5057295;28;20048;-73
2022/07/30 05:43:59;;;;;;;42.83;22.40;;;;;;;17.29;100.00;101399.97;5058963;28;20094;-73
2022/07/30 05:46:25;;;;;;;44.17;23.98;;;;;;;17.41;100.00;101390.94;5061092;28;20056;-72
2022/07/30 05:48:52;;;;;;;40.17;22.85;;;;;;;17.51;100.00;101398.38;5051010;28;20059;-73
2022/07/30 05:51:19;;;;;;;48.42;27.27;;;;;;;17.68;100.00;101389.66;5058241;28;20041;-72
2022/07/30 05:53:46;;;;;;;46.88;25.20;;;;;;;17.82;100.00;101388.59;5066191;28;20091;-70
2022/07/30 05:56:13;;;;;;;48.20;25.02;;;;;;;17.94;100.00;101387.94;5060408;28;20052;-73
2022/07/30 05:58:39;;;;;;;44.25;25.15;;;;;;;17.97;100.00;101389.88;5066182;28;20135;-74
2022/07/30 06:01:06;;;;;;;41.33;23.60;;;;;;;18.03;100.00;101396.56;5060121;28;20126;-73
2022/07/30 06:03:33;;;;;;;39.67;20.98;;;;;;;18.13;100.00;101387.16;5057623;28;20124;-73
2022/07/30 06:06:04;;;;;;;36.15;21.25;;;;;;;18.26;100.00;101398.47;5060036;28;20428;-73
2022/07/30 06:08:31;;;;;;;46.38;24.73;;;;;;;18.30;100.00;101397.19;5058698;28;20057;-73
2022/07/30 06:10:57;;;;;;;57.60;28.42;;;;;;;18.36;100.00;101400.28;5057133;28;20559;-73
2022/07/30 06:13:24;;;;;;;62.20;30.33;;;;;;;18.33;100.00;101398.31;5059338;28;20061;-74
2022/07/30 06:15:51;;;;;;;67.80;32.42;;;;;;;18.35;100.00;101396.66;5062282;28;20489;-71
2022/07/30 06:18:18;;;;;;;71.07;42.03;;;;;;;18.47;100.00;101400.81;5055505;28;20049;-73
2022/07/30 06:20:50;;;;;;;77.93;36.60;;;;;;;18.58;100.00;101404.16;5056559;28;20045;-74
2022/07/30 06:23:17;;;;;;;71.75;38.47;;;;;;;18.68;100.00;101405.94;5062528;28;20051;-73
2022/07/30 06:25:44;;;;;;;66.03;35.78;;;;;;;18.69;100.00;101401.94;5065362;28;20148;-72
2022/07/30 06:28:11;;;;;;;64.30;33.10;;;;;;;18.73;100.00;101408.22;5057692;28;20055;-73
2022/07/30 06:30:57;;;;;;;62.13;32.85;;;;;;;18.78;100.00;101413.31;5065015;28;20045;-73
2022/07/30 06:33:24;;;;;;;57.78;29.73;;;;;;;18.82;100.00;101414.81;5065499;28;20052;-73
2022/07/30 06:35:50;;;;;;;52.80;27.55;;;;;;;18.86;100.00;101423.16;5058982;28;20059;-70
2022/07/30 06:38:17;;;;;;;60.20;32.25;;;;;;;18.90;100.00;101426.66;5059384;28;20132;-76
2022/07/30 06:40:44;;;;;;;61.75;32.42;;;;;;;18.91;100.00;101426.22;5062452;28;20070;-73
2022/07/30 06:43:10;;;;;;;62.03;33.67;;;;;;;18.92;100.00;101426.97;5068346;28;20475;-76
2022/07/30 06:45:38;;;;;;;60.88;31.08;;;;;;;18.95;100.00;101428.91;5072433;28;20062;-76
2022/07/30 06:48:05;;;;;;;63.58;34.60;;;;;;;18.97;100.00;101430.06;5071354;28;20052;-76
2022/07/30 06:50:31;;;;;;;61.85;32.97;;;;;;;18.98;100.00;101428.03;5068844;28;20132;-76
2022/07/30 06:52:58;;;;;;;60.83;33.25;;;;;;;18.99;100.00;101429.63;5062976;28;20127;-75
2022/07/30 06:55:24;;;;;;;68.18;34.28;;;;;;;19.05;100.00;101431.47;5070667;28;20123;-78
2022/07/30 06:57:51;;;;;;;58.67;34.22;;;;;;;19.06;100.00;101435.84;5071491;28;20048;-75
2022/07/30 07:00:17;;;;;;;61.38;35.45;;;;;;;19.04;100.00;101432.69;5069108;28;20040;-75
2022/07/30 07:02:44;;;;;;;59.42;34.53;;;;;;;19.02;100.00;101428.75;5070836;28;20131;-75
2022/07/30 07:05:11;;;;;;;65.60;33.67;;;;;;;19.05;100.00;101428.66;5065155;28;20821;-76
2022/07/30 07:07:39;;;;;;;64.90;33.60;;;;;;;19.01;100.00;101435.59;5065168;28;20452;-75
2022/07/30 07:10:14;;;;;;;60.20;27.85;;;;;;;18.91;100.00;101431.81;5056494;28;20133;-76
2022/07/30 07:12:40;;;;;;;72.15;38.78;;;;;;;18.79;100.00;101426.91;5069264;28;20484;-74
2022/07/30 07:15:08;;;;;;;68.07;34.78;;;;;;;18.79;100.00;101431.69;5067388;28;20554;-74
2022/07/30 07:17:35;;;;;;;38.45;17.00;;;;;;;18.65;100.00;101440.44;5071154;28;20713;-75
2022/07/30 07:20:02;;;;;;;28.52;12.63;;;;;;;18.35;100.00;101444.28;5054912;28;20080;-76
2022/07/30 07:22:29;;;;;;;20.30;9.82;;;;;;;18.23;100.00;101444.94;5057860;28;20124;-74
2022/07/30 07:24:55;;;;;;;58.45;24.27;;;;;;;18.19;100.00;101444.22;5062581;28;20449;-72
2022/07/30 07:27:22;;;;;;;56.70;28.45;;;;;;;18.22;100.00;101450.97;5064238;28;20561;-75
2022/07/30 07:29:49;;;;;;;59.97;31.55;;;;;;;18.44;100.00;101449.31;5064569;28;20121;-74
2022/07/30 07:32:32;;;;;;;58.28;32.47;;;;;;;18.54;100.00;101451.91;5051603;28;20048;-71
2022/07/30 07:34:58;;;;;;;61.58;33.95;;;;;;;18.64;100.00;101448.09;5053179;28;20499;-73
2022/07/30 07:37:25;;;;;;;60.33;31.30;;;;;;;18.77;100.00;101451.00;5058692;28;20094;-72
2022/07/30 07:39:51;;;;;;;48.95;25.63;;;;;;;18.74;100.00;101457.47;5061074;28;20076;-75
2022/07/30 07:42:18;;;;;;;13.43;5.82;;;;;;;18.77;100.00;101448.19;5057303;28;20452;-72
2022/07/30 07:44:44;;;;;;;43.78;18.00;;;;;;;18.90;100.00;101455.47;5052503;28;20051;-72
2022/07/30 07:47:11;;;;;;;68.25;40.38;;;;;;;18.96;100.00;101458.53;5052277;28;20122;-73
2022/07/30 07:49:38;;;;;;;67.05;36.05;;;;;;;19.06;100.00;101455.47;5058778;28;20728;-72
2022/07/30 07:52:04;;;;;;;75.60;41.55;;;;;;;19.18;100.00;101457.59;5060980;28;20048;-72
2022/07/30 07:54:31;;;;;;;76.43;40.67;;;;;;;19.28;100.00;101465.00;5060430;28;20135;-75
2022/07/30 07:56:58;;;;;;;77.75;43.03;;;;;;;19.37;100.00;101459.53;5062613;28;20049;-72
2022/07/30 07:59:28;;;;;;;65.60;40.40;;;;;;;19.48;100.00;101462.84;5063679;28;20468;-73
2022/07/30 08:02:09;;;;;;;68.55;38.75;;;;;;;19.65;100.00;101461.59;5050460;28;20698;-72
2022/07/30 08:04:35;;;;;;;54.95;31.88;;;;;;;19.61;100.00;101468.56;5066991;28;20579;-72
2022/07/30 08:07:02;;;;;;;42.33;26.77;;;;;;;19.55;100.00;101468.31;5065168;28;20152;-72
2022/07/30 08:09:30;;;;;;;41.15;25.17;;;;;;;19.59;100.00;101466.19;5055077;28;20505;-72
2022/07/30 08:12:10;;;;;;;39.25;23.92;;;;;;;19.66;100.00;101462.41;5057178;28;20045;-76
2022/07/30 08:14:36;;;;;;;47.22;28.45;;;;;;;19.64;100.00;101467.69;5062675;28;20304;-70
2022/07/30 08:17:03;;;;;;;43.03;28.83;;;;;;;19.83;100.00;101461.94;5058915;28;20673;-74
2022/07/30 08:19:30;;;;;;;45.17;24.75;;;;;;;19.85;100.00;101458.69;5059373;28;20139;-75
2022/07/30 08:21:58;;;;;;;36.05;17.02;;;;;;;19.64;100.00;101460.03;5069905;28;20412;-72
2022/07/30 08:24:25;;;;;;;49.78;32.05;;;;;;;19.91;100.00;101470.97;5061729;28;20048;-74
2022/07/30 08:26:52;;;;;;;46.20;27.17;;;;;;;19.98;100.00;101468.72;5053435;28;20125;-73
2022/07/30 08:29:19;;;;;;;39.38;25.17;;;;;;;20.03;100.00;101467.41;5050380;28;20485;-72
2022/07/30 08:31:45;;;;;;;37.60;24.48;;;;;;;20.15;100.00;101467.47;5053904;28;20037;-73
2022/07/30 08:34:12;;;;;;;43.92;28.23;;;;;;;20.31;100.00;101453.34;5056856;28;20090;-75
2022/07/30 08:36:39;;;;;;;43.13;27.45;;;;;;;20.53;100.00;101463.97;5056623;28;20052;-73
2022/07/30 08:39:06;;;;;;;33.85;21.00;;;;;;;20.55;100.00;101464.31;5053474;28;20074;-73
2022/07/30 08:41:35;;;;;;;40.00;26.10;;;;;;;20.62;100.00;101462.06;5058233;28;20053;-74
2022/07/30 08:44:02;;;;;;;34.75;22.13;;;;;;;20.61;100.00;101465.34;5060047;28;20053;-73
2022/07/30 08:46:32;;;;;;;33.75;17.58;;;;;;;20.69;100.00;101455.44;5051140;28;20156;-75
2022/07/30 08:48:59;;;;;;;23.15;11.75;;;;;;;20.54;100.00;101457.88;5061092;28;20049;-74
2022/07/30 08:51:35;;;;;;;31.77;16.98;;;;;;;20.70;100.00;101462.63;5066035;28;20055;-76
2022/07/30 08:54:05;;;;;;;29.95;17.42;;;;;;;20.96;100.00;101464.25;5056965;28;20120;-74
2022/07/30 08:56:32;;;;;;;30.13;18.05;;;;;;;21.16;100.00;101457.13;5066104;28;20578;-74
2022/07/30 08:59:00;;;;;;;28.45;16.42;;;;;;;21.35;100.00;101452.50;5065869;28;20052;-73
2022/07/30 09:01:26;;;;;;;28.40;14.52;;;;;;;21.39;100.00;101458.81;5053380;28;20064;-76
2022/07/30 09:03:53;;;;;;;28.50;13.75;;;;;;;21.61;100.00;101459.63;5057020;28;20053;-74
2022/07/30 09:06:20;;;;;;;28.05;15.60;;;;;;;21.83;100.00;101466.91;5059020;28;20433;-73
2022/07/30 09:08:46;;;;;;;21.13;10.98;;;;;;;21.70;100.00;101465.38;5053765;28;20509;-77
2022/07/30 09:11:13;;;;;;;27.98;13.88;;;;;;;21.94;100.00;101464.50;5062357;28;20049;-75
2022/07/30 09:13:41;;;;;;;21.63;10.50;;;;;;;21.98;100.00;101458.75;5062360;28;20131;-71
2022/07/30 09:16:24;;;;;;;25.25;12.65;;;;;;;22.20;100.00;101462.34;5059229;28;20106;-73
2022/07/30 09:18:52;;;;;;;30.65;15.00;;;;;;;22.47;100.00;101459.69;5059333;28;20049;-72
2022/07/30 09:21:22;;;;;;;22.90;13.05;;;;;;;22.66;100.00;101452.94;5054940;28;20123;-74
2022/07/30 09:24:02;;;;;;;26.95;13.73;;;;;;;22.77;97.54;101451.28;5052850;28;20175;-75
2022/07/30 09:26:31;;;;;;;25.67;13.65;;;;;;;22.74;96.98;101454.22;5059887;28;20055;-74
2022/07/30 09:29:18;;;;;;;26.20;12.77;;;;;;;22.87;95.50;101460.56;5057560;28;20053;-72
2022/07/30 09:31:56;;;;;;;15.82;8.60;;;;;;;22.82;91.65;101454.75;5049826;28;20131;-70
2022/07/30 09:34:23;;;;;;;25.80;13.25;;;;;;;22.98;91.17;101460.16;5050422;28;20053;-70
2022/07/30 09:36:50;;;;;;;22.08;13.27;;;;;;;23.16;92.80;101461.00;5067776;28;20170;-70
2022/07/30 09:39:34;;;;;;;25.65;13.20;;;;;;;23.49;89.63;101456.38;5064279;28;20059;-72
2022/07/30 09:42:03;;;;;;;24.13;13.95;;;;;;;23.60;87.60;101456.72;5051471;28;20041;-72
2022/07/30 09:44:30;;;;;;;20.33;11.02;;;;;;;23.51;87.97;101456.69;5049819;28;20049;-73
2022/07/30 09:46:57;;;;;;;21.92;12.43;;;;;;;23.63;88.49;101450.13;5056621;28;20417;-71
2022/07/30 09:49:26;;;;;;;21.35;13.15;;;;;;;23.82;88.67;101448.88;5060197;28;20083;-74
2022/07/30 09:51:54;;;;;;;21.20;9.90;;;;;;;23.88;84.10;101447.00;5065501;28;20084;-71
2022/07/30 09:54:49;;;;;;;10.98;4.57;;;;;;;23.77;76.57;101454.38;5059561;28;20052;-71
2022/07/30 09:57:18;;;;;;;11.60;5.75;;;;;;;23.64;76.33;101440.41;5058833;28;20044;-70
2022/07/30 09:59:54;;;;;;;;;;;;;;;23.96;72.55;101451.09;5063334;28;20064;-72
2022/07/30 10:02:28;;;;;;;15.75;7.40;;;;;;;24.40;74.71;101449.47;5063651;28;20007;-72
2022/07/30 10:05:12;;;;;;;17.60;7.93;;;;;;;24.58;71.94;101457.94;5061744;28;20056;-74
2022/07/30 10:08:08;;;;;;;13.52;6.07;;;;;;;24.26;72.46;101455.78;5055462;28;20103;-72
2022/07/30 10:10:45;;;;;;;18.00;7.30;;;;;;;24.42;74.60;101454.66;5061591;28;20448;-71
2022/07/30 10:13:18;;;;;;;14.70;6.70;;;;;;;24.63;72.69;101459.34;5059541;28;20139;-75
2022/07/30 10:15:48;;;;;;;17.45;7.07;;;;;;;24.74;70.35;101454.75;5056346;28;20049;-70
2022/07/30 10:18:15;;;;;;;15.38;7.30;;;;;;;24.91;69.27;101450.25;5066972;28;20391;-73
2022/07/30 10:20:43;;;;;;;14.07;5.93;;;;;;;25.05;68.51;101458.06;5058070;28;20060;-72
2022/07/30 10:23:11;;;;;;;16.83;6.13;;;;;;;25.15;64.96;101445.44;5060739;28;20084;-71
2022/07/30 10:25:43;;;;;;;16.63;6.22;;;;;;;25.40;68.24;101449.09;5053059;28;20132;-74
2022/07/30 10:28:22;;;;;;;12.55;6.18;;;;;;;25.55;66.62;101450.75;5058977;28;20132;-73
2022/07/30 10:30:51;;;;;;;14.68;6.05;;;;;;;25.61;64.08;101459.34;5037414;28;20095;-75
2022/07/30 10:33:20;;;;;;;12.30;5.47;;;;;;;25.64;62.87;101450.66;5044731;28;20052;-76
2022/07/30 10:36:03;;;;;;;20.55;6.97;;;;;;;25.64;62.26;101455.56;5041725;28;20132;-75
2022/07/30 10:38:32;;;;;;;15.65;5.22;;;;;;;25.57;58.90;101447.38;5036596;28;20882;-72
2022/07/30 10:41:10;;;;;;;13.27;6.15;;;;;;;25.61;58.45;101462.19;5037678;28;20045;-75
2022/07/30 10:44:00;;;;;;;14.00;6.05;;;;;;;25.57;59.23;101458.72;5040392;28;20049;-77
2022/07/30 10:46:27;;;;;;;11.80;5.10;;;;;;;25.98;61.00;101450.09;5027477;28;20161;-74
2022/07/30 10:48:56;;;;;;;13.20;5.20;;;;;;;26.20;58.16;101449.72;5048675;28;20052;-71
2022/07/30 10:51:42;;;;;;;11.38;4.50;;;;;;;26.46;54.30;101445.06;5049858;28;20105;-77
2022/07/30 10:54:33;;;;;;;10.38;4.13;;;;;;;26.43;50.93;101443.19;5047208;28;20049;-74
2022/07/30 10:57:12;;;;;;;12.57;4.05;;;;;;;26.11;53.63;101447.75;5042824;28;20553;-76
2022/07/30 10:59:48;;;;;;;10.02;4.07;;;;;;;26.20;51.85;101449.72;5046451;28;20052;-75
2022/07/30 11:02:17;;;;;;;12.82;5.13;;;;;;;26.18;50.04;101453.06;5045386;28;20155;-76
2022/07/30 11:04:45;;;;;;;13.48;5.65;;;;;;;26.39;50.63;101445.44;5040031;28;20599;-76
2022/07/30 11:07:20;;;;;;;14.13;4.78;;;;;;;26.46;49.33;101445.06;5049063;28;20045;-74
2022/07/30 11:09:53;;;;;;;6.97;3.20;;;;;;;25.93;48.39;101445.06;5033487;28;20060;-73
2022/07/30 11:12:40;;;;;;;12.63;4.10;;;;;;;26.46;48.66;101440.13;5039822;28;20094;-72
2022/07/30 11:15:11;;;;;;;7.68;4.13;;;;;;;26.49;49.82;101433.50;5034527;28;20045;-70
2022/07/30 11:18:03;;;;;;;10.80;4.15;;;;;;;26.34;48.75;101440.44;5035185;28;20086;-74